createdAt,value
2022-09-12T00:00:50.325Z,1.10
2022-09-12T00:03:41.066Z,1.00
2022-09-12T00:06:23.429Z,1.00
2022-09-12T00:08:57.117Z,0.70
2022-09-12T00:11:28.801Z,1.20
2022-09-12T00:14:02.958Z,0.90
2022-09-12T00:16:35.504Z,1.00
2022-09-12T00:19:07.229Z,1.00
2022-09-12T00:21:39.497Z,1.00
2022-09-12T00:24:11.134Z,1.00
2022-09-12T00:26:40.864Z,1.10
2022-09-12T00:29:17.066Z,1.20
2022-09-12T00:31:48.192Z,1.10
2022-09-12T00:34:17.961Z,1.20
2022-09-12T00:36:47.946Z,1.30
2022-09-12T00:39:18.179Z,1.50
2022-09-12T00:41:48.099Z,1.00
2022-09-12T00:44:24.772Z,1.40
2022-09-12T00:46:58.941Z,0.90
2022-09-12T00:49:48.966Z,1.30
2022-09-12T00:52:45.434Z,1.70
2022-09-12T00:55:30.805Z,2.30
2022-09-12T00:58:10.647Z,2.60
2022-09-12T01:00:42.018Z,3.60
2022-09-12T01:03:17.359Z,2.00
2022-09-12T01:06:18.495Z,1.90
2022-09-12T01:08:51.662Z,1.60
2022-09-12T01:11:22.985Z,1.20
2022-09-12T01:13:53.028Z,2.20
2022-09-12T01:16:22.950Z,1.70
2022-09-12T01:19:15.401Z,1.60
2022-09-12T01:21:55.950Z,1.50
2022-09-12T01:25:05.959Z,1.10
2022-09-12T01:28:23.990Z,1.40
2022-09-12T01:31:06.383Z,0.90
2022-09-12T01:33:48.382Z,1.20
2022-09-12T01:36:24.831Z,1.10
2022-09-12T01:39:04.690Z,1.10
2022-09-12T01:41:54.312Z,1.60
2022-09-12T01:45:03.624Z,1.30
2022-09-12T01:47:41.717Z,2.00
2022-09-12T01:50:29.131Z,1.60
2022-09-12T01:53:13.328Z,1.20
2022-09-12T01:56:03.388Z,1.20
2022-09-12T01:59:04.298Z,1.40
2022-09-12T02:01:37.003Z,1.30
2022-09-12T02:04:34.478Z,1.30
2022-09-12T02:07:31.920Z,1.30
2022-09-12T02:10:23.845Z,1.60
2022-09-12T02:13:13.352Z,1.50
2022-09-12T02:15:49.326Z,1.50
2022-09-12T02:18:21.492Z,1.60
2022-09-12T02:20:52.582Z,1.30
2022-09-12T02:23:28.412Z,1.50
2022-09-12T02:26:06.405Z,1.50
2022-09-12T02:28:42.856Z,1.60
2022-09-12T02:31:32.319Z,1.80
2022-09-12T02:34:08.913Z,1.60
2022-09-12T02:37:18.880Z,1.50
2022-09-12T02:39:49.608Z,1.80
2022-09-12T02:42:19.879Z,2.00
2022-09-12T02:44:50.475Z,1.80
2022-09-12T02:47:32.376Z,1.80
2022-09-12T02:50:05.814Z,1.50
2022-09-12T02:52:37.087Z,2.00
2022-09-12T02:55:07.648Z,2.10
2022-09-12T02:57:37.670Z,2.20
2022-09-12T03:00:07.840Z,2.20
2022-09-12T03:03:10.495Z,2.80
2022-09-12T03:05:53.489Z,2.70
2022-09-12T03:09:02.961Z,2.90
2022-09-12T03:11:38.288Z,2.50
2022-09-12T03:14:37.468Z,3.00
2022-09-12T03:17:41.525Z,3.10
2022-09-12T03:20:20.992Z,3.50
2022-09-12T03:23:15.411Z,3.80
2022-09-12T03:26:14.304Z,3.70
2022-09-12T03:28:45.981Z,3.60
2022-09-12T03:31:18.296Z,3.80
2022-09-12T03:33:49.123Z,4.00
2022-09-12T03:36:25.368Z,3.30
2022-09-12T03:38:56.395Z,3.90
2022-09-12T03:41:27.033Z,3.70
2022-09-12T03:43:57.659Z,3.90
2022-09-12T03:46:26.126Z,3.70
2022-09-12T03:48:56.681Z,4.10
2022-09-12T03:51:26.325Z,4.00
2022-09-12T03:53:56.648Z,3.80
2022-09-12T03:56:26.601Z,4.40
2022-09-12T03:58:56.226Z,4.00
2022-09-12T04:01:26.284Z,4.30
2022-09-12T04:03:56.190Z,4.50
2022-09-12T04:06:24.614Z,3.90
2022-09-12T04:08:55.344Z,3.90
2022-09-12T04:11:25.508Z,4.10
2022-09-12T04:13:57.499Z,3.70
2022-09-12T04:16:27.515Z,3.90
2022-09-12T04:18:57.482Z,3.50
2022-09-12T04:21:27.740Z,3.50
2022-09-12T04:23:57.991Z,3.60
2022-09-12T04:26:30.217Z,3.70
2022-09-12T04:29:00.154Z,4.30
2022-09-12T04:31:30.324Z,3.40
2022-09-12T04:34:01.409Z,3.80
2022-09-12T04:36:31.852Z,3.90
2022-09-12T04:39:02.815Z,4.00
2022-09-12T04:41:38.784Z,3.80
2022-09-12T04:44:13.049Z,4.50
2022-09-12T04:46:45.778Z,4.30
2022-09-12T04:49:19.719Z,4.40
2022-09-12T04:51:53.151Z,4.10
2022-09-12T04:54:23.174Z,4.20
2022-09-12T04:56:55.165Z,4.00
2022-09-12T04:59:24.885Z,4.30
2022-09-12T05:01:54.626Z,3.70
2022-09-12T05:04:24.880Z,4.10
2022-09-12T05:06:53.506Z,4.40
2022-09-12T05:09:23.312Z,3.40
2022-09-12T05:12:08.152Z,4.00
2022-09-12T05:14:39.215Z,4.10
2022-09-12T05:17:08.484Z,4.00
2022-09-12T05:19:38.485Z,4.00
2022-09-12T05:22:08.257Z,3.90
2022-09-12T05:24:40.217Z,3.80
2022-09-12T05:27:11.926Z,4.00
2022-09-12T05:29:43.353Z,3.50
2022-09-12T05:32:13.160Z,3.80
2022-09-12T05:34:43.468Z,3.30
2022-09-12T05:37:13.370Z,3.40
2022-09-12T05:39:42.932Z,3.40
2022-09-12T05:42:12.891Z,3.90
2022-09-12T05:44:42.917Z,3.70
2022-09-12T05:47:13.434Z,3.30
2022-09-12T05:49:45.602Z,3.30
2022-09-12T05:52:14.221Z,3.50
2022-09-12T05:54:43.715Z,3.50
2022-09-12T05:57:13.911Z,3.20
2022-09-12T05:59:43.955Z,3.40
2022-09-12T06:02:14.338Z,3.60
2022-09-12T06:04:44.352Z,3.30
2022-09-12T06:07:15.140Z,3.10
2022-09-12T06:09:44.979Z,3.50
2022-09-12T06:12:14.773Z,3.30
2022-09-12T06:14:45.056Z,3.40
2022-09-12T06:17:14.918Z,3.50
2022-09-12T06:19:44.724Z,3.30
2022-09-12T06:22:14.558Z,3.20
2022-09-12T06:24:44.440Z,3.40
2022-09-12T06:27:14.755Z,3.70
2022-09-12T06:29:43.261Z,3.50
2022-09-12T06:32:14.413Z,3.10
2022-09-12T06:34:44.150Z,3.10
2022-09-12T06:37:14.223Z,2.80
2022-09-12T06:39:44.458Z,3.00
2022-09-12T06:42:15.147Z,3.20
2022-09-12T06:44:50.972Z,3.50
2022-09-12T06:47:21.425Z,3.40
2022-09-12T06:49:51.248Z,3.10
2022-09-12T06:52:20.389Z,2.80
2022-09-12T06:54:50.487Z,3.20
2022-09-12T06:57:20.459Z,2.70
2022-09-12T06:59:50.994Z,2.90
2022-09-12T07:02:21.477Z,2.80
2022-09-12T07:04:52.688Z,3.20
2022-09-12T07:07:22.627Z,2.80
2022-09-12T07:09:52.624Z,3.30
2022-09-12T07:12:22.100Z,3.00
2022-09-12T07:14:52.072Z,3.10
2022-09-12T07:17:22.094Z,2.90
2022-09-12T07:19:51.484Z,3.20
2022-09-12T07:22:20.770Z,2.80
2022-09-12T07:24:50.719Z,3.50
2022-09-12T07:27:21.552Z,3.20
2022-09-12T07:29:51.852Z,3.30
2022-09-12T07:32:21.166Z,3.10
2022-09-12T07:34:50.637Z,2.90
2022-09-12T07:37:21.154Z,3.40
2022-09-12T07:39:51.059Z,3.20
2022-09-12T07:42:20.163Z,3.40
2022-09-12T07:44:52.866Z,3.30
2022-09-12T07:47:23.063Z,3.30
2022-09-12T07:49:53.450Z,3.50
2022-09-12T07:52:21.916Z,3.00
2022-09-12T07:54:51.814Z,3.10
2022-09-12T07:57:21.874Z,3.20
2022-09-12T07:59:53.225Z,3.30
2022-09-12T08:02:24.323Z,3.30
2022-09-12T08:04:54.406Z,3.00
2022-09-12T08:07:24.301Z,3.40
2022-09-12T08:09:54.254Z,3.00
2022-09-12T08:12:23.467Z,3.30
2022-09-12T08:14:53.699Z,3.10
2022-09-12T08:17:22.615Z,3.00
2022-09-12T08:19:52.933Z,3.20
2022-09-12T08:22:23.263Z,3.00
2022-09-12T08:24:54.137Z,3.60
2022-09-12T08:27:24.110Z,3.30
2022-09-12T08:29:55.681Z,3.30
2022-09-12T08:32:25.084Z,3.40
2022-09-12T08:34:54.393Z,3.30
2022-09-12T08:37:24.472Z,3.10
2022-09-12T08:39:54.113Z,3.30
2022-09-12T08:43:04.031Z,3.60
2022-09-12T08:45:37.198Z,3.30
2022-09-12T08:48:10.229Z,4.00
2022-09-12T08:50:49.333Z,3.10
2022-09-12T08:53:23.275Z,3.30
2022-09-12T08:56:00.202Z,3.60
2022-09-12T08:58:30.117Z,3.20
2022-09-12T09:01:11.729Z,2.90
2022-09-12T09:04:01.798Z,3.20
2022-09-12T09:07:08.341Z,2.90
2022-09-12T09:09:41.620Z,3.20
2022-09-12T09:12:29.486Z,3.20
2022-09-12T09:17:43.556Z,2.80
2022-09-12T09:20:39.149Z,2.70
2022-09-12T09:23:28.989Z,3.20
2022-09-12T09:26:02.042Z,2.60
2022-09-12T09:28:45.768Z,3.10
2022-09-12T09:31:20.097Z,3.40
2022-09-12T09:33:52.447Z,3.50
2022-09-12T09:36:25.447Z,3.10
2022-09-12T09:39:06.277Z,3.10
2022-09-12T09:41:55.403Z,3.50
2022-09-12T09:44:25.248Z,2.70
2022-09-12T09:46:58.804Z,2.50
2022-09-12T09:49:32.555Z,2.50
2022-09-12T09:52:08.943Z,2.80
2022-09-12T09:54:46.702Z,2.70
2022-09-12T09:57:36.734Z,2.80
2022-09-12T10:00:27.483Z,2.60
2022-09-12T10:03:08.268Z,3.00
2022-09-12T10:05:50.711Z,3.10
2022-09-12T10:08:32.295Z,2.70
2022-09-12T10:11:07.341Z,3.00
2022-09-12T10:13:41.997Z,2.90
2022-09-12T10:16:31.786Z,2.70
2022-09-12T10:19:04.143Z,2.60
2022-09-12T10:21:57.175Z,2.70
2022-09-12T10:24:42.311Z,2.60
2022-09-12T10:27:21.650Z,2.70
2022-09-12T10:30:18.990Z,2.30
2022-09-12T10:32:52.387Z,2.10
2022-09-12T10:35:24.469Z,2.60
2022-09-12T10:37:58.709Z,2.70
2022-09-12T10:40:36.879Z,2.40
2022-09-12T10:43:37.718Z,2.30
2022-09-12T10:46:17.176Z,2.90
2022-09-12T10:48:51.067Z,3.00
2022-09-12T10:51:29.127Z,2.80
2022-09-12T10:54:02.437Z,3.00
2022-09-12T10:56:40.787Z,2.70
2022-09-12T10:59:34.680Z,2.50
2022-09-12T11:02:30.080Z,2.40
2022-09-12T11:05:19.482Z,2.60
2022-09-12T11:08:11.929Z,2.20
2022-09-12T11:11:11.240Z,2.50
2022-09-12T11:14:00.217Z,1.90
2022-09-12T11:16:43.189Z,2.20
2022-09-12T11:19:27.195Z,2.30
2022-09-12T11:22:23.615Z,2.60
2022-09-12T11:25:29.056Z,2.20
2022-09-12T11:28:20.390Z,2.30
2022-09-12T11:30:59.059Z,1.90
2022-09-12T11:33:50.422Z,1.90
2022-09-12T11:36:28.697Z,1.80
2022-09-12T11:39:18.408Z,1.80
2022-09-12T11:42:00.155Z,2.00
2022-09-12T11:44:46.555Z,2.10
2022-09-12T11:47:18.937Z,2.20
2022-09-12T11:49:54.610Z,1.90
2022-09-12T11:52:29.058Z,2.10
2022-09-12T11:55:17.528Z,2.40
2022-09-12T11:57:58.887Z,2.10
2022-09-12T12:00:37.420Z,2.10
2022-09-12T12:06:15.413Z,2.20
2022-09-12T12:08:48.595Z,1.80
2022-09-12T12:11:37.857Z,1.80
2022-09-12T12:14:27.053Z,1.80
2022-09-12T12:16:58.188Z,2.10
2022-09-12T12:19:36.607Z,2.20
2022-09-12T12:22:26.659Z,2.40
2022-09-12T12:25:29.427Z,3.20
2022-09-12T12:28:07.233Z,2.90
2022-09-12T12:30:36.639Z,2.00
2022-09-12T12:33:13.471Z,2.00
2022-09-12T12:35:47.101Z,3.00
2022-09-12T12:38:37.447Z,1.80
2022-09-12T12:41:18.809Z,2.50
2022-09-12T12:43:50.512Z,1.60
2022-09-12T12:46:29.635Z,2.20
2022-09-12T12:49:05.207Z,1.70
2022-09-12T12:52:01.941Z,3.50
2022-09-12T12:54:43.473Z,2.80
2022-09-12T12:57:28.517Z,2.00
2022-09-12T13:00:08.271Z,2.00
2022-09-12T13:02:41.687Z,1.80
2022-09-12T13:05:24.733Z,1.90
2022-09-12T13:08:10.524Z,2.20
2022-09-12T13:10:49.785Z,2.00
2022-09-12T13:13:32.432Z,1.70
2022-09-12T13:16:02.598Z,1.70
2022-09-12T13:18:42.206Z,2.00
2022-09-12T13:21:15.853Z,1.50
2022-09-12T13:24:03.007Z,1.70
2022-09-12T13:26:44.320Z,2.00
2022-09-12T13:29:18.011Z,1.80
2022-09-12T13:31:55.985Z,1.20
2022-09-12T13:34:29.749Z,1.90
2022-09-12T13:37:23.712Z,1.50
2022-09-12T13:40:40.074Z,1.80
2022-09-12T13:43:17.465Z,1.20
2022-09-12T13:45:48.201Z,1.40
2022-09-12T13:48:26.725Z,1.60
2022-09-12T13:51:01.072Z,1.50
2022-09-12T13:53:42.691Z,1.70
2022-09-12T13:56:20.198Z,1.70
2022-09-12T13:58:57.831Z,1.70
2022-09-12T14:01:43.791Z,1.40
2022-09-12T14:04:39.246Z,1.30
2022-09-12T14:07:15.787Z,1.40
2022-09-12T14:09:53.690Z,1.60
2022-09-12T14:12:44.165Z,1.60
2022-09-12T14:15:28.176Z,1.40
2022-09-12T14:18:03.435Z,1.40
2022-09-12T14:20:38.984Z,1.50
2022-09-12T14:23:30.559Z,1.60
2022-09-12T14:26:08.661Z,1.40
2022-09-12T14:28:43.451Z,1.40
2022-09-12T14:31:17.301Z,1.50
2022-09-12T14:33:52.814Z,1.60
2022-09-12T14:36:30.731Z,1.60
2022-09-12T14:41:40.320Z,1.50
2022-09-12T14:44:23.727Z,1.60
2022-09-12T14:46:54.385Z,1.80
2022-09-12T14:49:35.299Z,1.70
2022-09-12T14:52:22.542Z,1.80
2022-09-12T14:55:25.168Z,2.20
2022-09-12T14:58:23.124Z,1.50
2022-09-12T15:01:08.566Z,1.70
2022-09-12T15:03:50.129Z,1.90
2022-09-12T15:06:38.781Z,1.50
2022-09-12T15:09:14.528Z,1.70
2022-09-12T15:11:44.128Z,1.60
2022-09-12T15:14:14.992Z,1.60
2022-09-12T15:16:45.233Z,1.90
2022-09-12T15:19:15.166Z,2.00
2022-09-12T15:21:45.083Z,1.70
2022-09-12T15:24:13.448Z,2.20
2022-09-12T15:26:43.478Z,2.10
2022-09-12T15:29:13.324Z,2.40
2022-09-12T15:31:51.310Z,2.20
2022-09-12T15:34:23.934Z,2.60
2022-09-12T15:36:53.701Z,2.10
2022-09-12T15:39:23.498Z,1.90
2022-09-12T15:41:52.966Z,1.60
2022-09-12T15:44:21.466Z,1.70
2022-09-12T15:46:51.090Z,1.70
2022-09-12T15:49:20.346Z,2.00
2022-09-12T15:51:50.067Z,2.10
2022-09-12T15:54:21.126Z,1.90
2022-09-12T15:56:50.589Z,2.80
2022-09-12T15:59:21.000Z,2.20
2022-09-12T16:01:51.473Z,1.80
2022-09-12T16:04:26.783Z,2.00
2022-09-12T16:06:57.616Z,2.00
2022-09-12T16:09:26.853Z,2.30
2022-09-12T16:11:56.554Z,2.10
2022-09-12T16:14:26.446Z,2.20
2022-09-12T16:16:57.364Z,2.20
2022-09-12T16:19:27.272Z,1.90
2022-09-12T16:21:56.982Z,2.40
2022-09-12T16:24:26.670Z,2.90
2022-09-12T16:27:00.519Z,2.90
2022-09-12T16:29:31.708Z,3.60
2022-09-12T16:32:03.588Z,3.30
2022-09-12T16:34:33.301Z,4.10
2022-09-12T16:37:03.420Z,3.90
2022-09-12T16:39:34.807Z,3.10
2022-09-12T16:42:04.965Z,3.50
2022-09-12T16:44:35.545Z,3.40
2022-09-12T16:47:05.262Z,3.30
2022-09-12T16:49:35.300Z,3.90
2022-09-12T16:52:06.175Z,3.30
2022-09-12T16:54:34.771Z,4.20
2022-09-12T16:57:06.738Z,3.60
2022-09-12T16:59:37.020Z,4.60
2022-09-12T17:02:08.674Z,4.50
2022-09-12T17:04:38.665Z,3.50
2022-09-12T17:07:08.818Z,3.40
2022-09-12T17:09:38.055Z,6.30
2022-09-12T17:12:08.467Z,4.40
2022-09-12T17:14:37.787Z,3.90
2022-09-12T17:17:06.405Z,4.50
2022-09-12T17:19:35.646Z,6.00
2022-09-12T17:22:05.390Z,4.90
2022-09-12T17:24:35.482Z,4.90
2022-09-12T17:27:04.784Z,5.60
2022-09-12T17:29:37.145Z,7.50
2022-09-12T17:32:06.539Z,8.70
2022-09-12T17:34:36.230Z,9.50
2022-09-12T17:37:05.875Z,7.50
2022-09-12T17:39:35.123Z,5.30
2022-09-12T17:42:08.268Z,5.20
2022-09-12T17:44:37.761Z,5.50
2022-09-12T17:47:07.412Z,4.90
2022-09-12T17:49:38.259Z,4.00
2022-09-12T17:52:08.518Z,4.90
2022-09-12T17:54:38.914Z,5.50
2022-09-12T17:57:08.620Z,3.80
2022-09-12T17:59:38.163Z,3.90
2022-09-12T18:02:18.360Z,4.00
2022-09-12T18:04:48.596Z,4.20
2022-09-12T18:07:19.823Z,4.00
2022-09-12T18:09:50.957Z,4.00
2022-09-12T18:12:21.055Z,5.10
2022-09-12T18:14:51.185Z,5.10
2022-09-12T18:17:21.797Z,4.50
2022-09-12T18:19:53.800Z,2.70
2022-09-12T18:22:23.801Z,2.50
2022-09-12T18:24:53.725Z,2.70
2022-09-12T18:27:23.580Z,2.80
2022-09-12T18:30:17.305Z,3.30
2022-09-12T18:32:43.642Z,3.00
2022-09-12T18:35:14.110Z,2.80
2022-09-12T18:37:44.368Z,3.00
2022-09-12T18:40:14.222Z,3.30
2022-09-12T18:42:43.421Z,3.10
2022-09-12T18:45:13.094Z,3.60
2022-09-12T18:47:42.887Z,3.50
2022-09-12T18:50:12.547Z,3.30
2022-09-12T18:52:44.179Z,3.70
2022-09-12T18:55:14.083Z,3.60
2022-09-12T18:57:43.919Z,4.00
2022-09-12T19:00:14.064Z,3.80
2022-09-12T19:02:43.774Z,3.70
2022-09-12T19:05:13.433Z,3.40
2022-09-12T19:07:42.468Z,3.30
2022-09-12T19:10:12.577Z,3.40
2022-09-12T19:12:41.018Z,3.70
2022-09-12T19:15:10.948Z,3.50
2022-09-12T19:17:40.635Z,3.10
2022-09-12T19:20:09.406Z,3.30
2022-09-12T19:22:40.140Z,3.20
2022-09-12T19:25:18.384Z,3.90
2022-09-12T19:27:48.557Z,3.10
2022-09-12T19:30:18.283Z,3.50
2022-09-12T19:32:48.411Z,3.30
2022-09-12T19:35:18.015Z,3.00
2022-09-12T19:37:47.548Z,2.90
2022-09-12T19:40:16.272Z,3.30
2022-09-12T19:42:46.259Z,3.50
2022-09-12T19:45:16.010Z,3.70
2022-09-12T19:47:46.031Z,3.10
2022-09-12T19:50:16.580Z,3.30
2022-09-12T19:52:46.592Z,3.30
2022-09-12T19:55:15.131Z,3.00
2022-09-12T19:57:44.717Z,3.10
2022-09-12T20:00:14.505Z,3.00
2022-09-12T20:02:44.302Z,3.70
2022-09-12T20:05:14.044Z,3.30
2022-09-12T20:07:43.745Z,3.50
2022-09-12T20:10:14.302Z,3.00
2022-09-12T20:12:43.878Z,2.90
2022-09-12T20:15:13.766Z,3.50
2022-09-12T20:17:43.489Z,2.90
2022-09-12T20:20:12.005Z,2.70
2022-09-12T20:22:41.630Z,3.10
2022-09-12T20:25:11.282Z,3.00
2022-09-12T20:27:40.530Z,3.00
2022-09-12T20:30:11.621Z,3.10
2022-09-12T20:32:40.560Z,2.80
2022-09-12T20:35:10.934Z,3.00
2022-09-12T20:37:41.147Z,2.90
2022-09-12T20:40:11.634Z,3.10
2022-09-12T20:42:41.505Z,3.10
2022-09-12T20:45:11.527Z,2.90
2022-09-12T20:47:41.626Z,3.10
2022-09-12T20:50:11.177Z,2.90
2022-09-12T20:52:41.079Z,2.80
2022-09-12T20:55:11.288Z,3.10
2022-09-12T20:57:40.866Z,3.00
2022-09-12T21:00:15.267Z,3.00
2022-09-12T21:02:44.994Z,2.80
2022-09-12T21:05:15.580Z,2.90
2022-09-12T21:07:45.172Z,3.00
2022-09-12T21:10:14.588Z,2.50
2022-09-12T21:12:44.517Z,2.60
2022-09-12T21:15:14.160Z,2.70
2022-09-12T21:17:44.009Z,2.00
2022-09-12T21:20:14.026Z,2.40
2022-09-12T21:22:43.329Z,2.20
2022-09-12T21:25:13.504Z,3.10
2022-09-12T21:27:43.686Z,2.70
2022-09-12T21:30:15.985Z,3.90
2022-09-12T21:32:45.276Z,3.40
2022-09-12T21:35:13.881Z,3.50
2022-09-12T21:37:44.798Z,2.90
2022-09-12T21:40:14.566Z,2.90
2022-09-12T21:42:45.466Z,2.40
2022-09-12T21:45:14.909Z,2.40
2022-09-12T21:47:45.257Z,2.20
2022-09-12T21:50:15.239Z,2.70
2022-09-12T21:52:45.125Z,2.40
2022-09-12T21:55:14.438Z,2.40
2022-09-12T21:57:44.544Z,2.50
2022-09-12T22:00:18.689Z,2.40
2022-09-12T22:02:49.347Z,2.40
2022-09-12T22:05:21.676Z,2.60
2022-09-12T22:07:51.506Z,2.50
2022-09-12T22:10:21.194Z,2.60
2022-09-12T22:12:51.014Z,2.70
2022-09-12T22:18:10.433Z,3.00
2022-09-12T22:20:40.572Z,2.50
2022-09-12T22:23:33.217Z,2.70
2022-09-12T22:26:04.359Z,2.70
2022-09-12T22:28:35.313Z,2.70
2022-09-12T22:31:06.983Z,2.50
2022-09-12T22:33:35.957Z,2.30
2022-09-12T22:36:07.476Z,2.50
2022-09-12T22:38:38.465Z,3.20
2022-09-12T22:41:10.696Z,2.60
2022-09-12T22:43:41.284Z,3.10
2022-09-12T22:46:12.770Z,3.00
2022-09-12T22:48:43.241Z,2.90
2022-09-12T22:51:12.888Z,2.70
2022-09-12T22:53:43.029Z,2.80
2022-09-12T22:56:13.215Z,3.20
2022-09-12T22:58:43.917Z,2.90
2022-09-12T23:01:14.812Z,2.60
2022-09-12T23:03:45.046Z,2.60
2022-09-12T23:06:15.126Z,2.90
2022-09-12T23:08:45.433Z,2.70
2022-09-12T23:11:17.908Z,2.30
2022-09-12T23:13:49.797Z,2.60
2022-09-12T23:16:25.168Z,2.90
2022-09-12T23:18:54.955Z,2.60
2022-09-12T23:21:25.121Z,2.70
2022-09-12T23:23:56.542Z,2.70
2022-09-12T23:26:30.504Z,2.20
2022-09-12T23:29:02.398Z,3.40
2022-09-12T23:31:33.869Z,3.10
2022-09-12T23:34:06.495Z,2.50
2022-09-12T23:36:37.512Z,2.50
2022-09-12T23:39:07.330Z,2.30
2022-09-12T23:41:36.965Z,2.40
2022-09-12T23:44:07.332Z,2.50
2022-09-12T23:46:37.073Z,2.90
2022-09-12T23:49:07.000Z,3.20
2022-09-12T23:51:36.863Z,2.70
2022-09-12T23:54:06.720Z,2.50
2022-09-12T23:56:36.838Z,2.60
2022-09-12T23:59:07.067Z,2.70
